sensor_id;sensor_type;location;lat;lon;timestamp;P1;durP1;ratioP1;P2;durP2;ratioP2
7013;SDS011;3547;50.774;12.918;2023-08-31T00:01:05;2.65;;;1.70;;
7013;SDS011;3547;50.774;12.918;2023-08-31T00:03:35;1.50;;;1.40;;
7013;SDS011;3547;50.774;12.918;2023-08-31T00:06:03;1.50;;;1.30;;
7013;SDS011;3547;50.774;12.918;2023-08-31T00:08:36;1.67;;;1.50;;
7013;SDS011;3547;50.774;12.918;2023-08-31T00:11:07;1.88;;;1.75;;
7013;SDS011;3547;50.774;12.918;2023-08-31T00:13:39;3.10;;;1.50;;
7013;SDS011;3547;50.774;12.918;2023-08-31T00:16:12;2.03;;;1.83;;
7013;SDS011;3547;50.774;12.918;2023-08-31T00:23:00;1.90;;;1.60;;
7013;SDS011;3547;50.774;12.918;2023-08-31T00:25:44;1.60;;;1.50;;
7013;SDS011;3547;50.774;12.918;2023-08-31T00:28:13;1.92;;;1.45;;
7013;SDS011;3547;50.774;12.918;2023-08-31T00:30:47;2.95;;;1.90;;
7013;SDS011;3547;50.774;12.918;2023-08-31T00:33:18;1.38;;;1.27;;
7013;SDS011;3547;50.774;12.918;2023-08-31T00:35:56;1.67;;;1.42;;
7013;SDS011;3547;50.774;12.918;2023-08-31T00:38:29;1.42;;;1.33;;
7013;SDS011;3547;50.774;12.918;2023-08-31T00:40:58;1.30;;;1.20;;
7013;SDS011;3547;50.774;12.918;2023-08-31T00:43:25;1.33;;;1.20;;
7013;SDS011;3547;50.774;12.918;2023-08-31T00:45:55;1.33;;;1.23;;
7013;SDS011;3547;50.774;12.918;2023-08-31T00:48:27;1.40;;;1.30;;
7013;SDS011;3547;50.774;12.918;2023-08-31T00:51:03;1.40;;;1.30;;
7013;SDS011;3547;50.774;12.918;2023-08-31T00:53:33;1.17;;;1.08;;
7013;SDS011;3547;50.774;12.918;2023-08-31T00:56:21;1.30;;;1.20;;
7013;SDS011;3547;50.774;12.918;2023-08-31T00:59:16;1.30;;;1.20;;
7013;SDS011;3547;50.774;12.918;2023-08-31T01:10:44;1.23;;;1.13;;
7013;SDS011;3547;50.774;12.918;2023-08-31T01:17:21;1.20;;;1.00;;
7013;SDS011;3547;50.774;12.918;2023-08-31T01:19:58;0.80;;;0.80;;
7013;SDS011;3547;50.774;12.918;2023-08-31T01:29:16;2.42;;;1.20;;
7013;SDS011;3547;50.774;12.918;2023-08-31T01:31:45;1.88;;;1.00;;
7013;SDS011;3547;50.774;12.918;2023-08-31T01:34:27;1.17;;;1.08;;
7013;SDS011;3547;50.774;12.918;2023-08-31T01:40:56;1.40;;;1.30;;
7013;SDS011;3547;50.774;12.918;2023-08-31T01:43:37;1.23;;;1.13;;
7013;SDS011;3547;50.774;12.918;2023-08-31T01:46:06;1.88;;;1.48;;
7013;SDS011;3547;50.774;12.918;2023-08-31T01:48:39;1.63;;;1.17;;
7013;SDS011;3547;50.774;12.918;2023-08-31T01:51:07;3.42;;;1.70;;
7013;SDS011;3547;50.774;12.918;2023-08-31T01:53:43;1.58;;;1.48;;
7013;SDS011;3547;50.774;12.918;2023-08-31T01:56:13;1.30;;;1.20;;
7013;SDS011;3547;50.774;12.918;2023-08-31T01:59:08;1.40;;;1.30;;
7013;SDS011;3547;50.774;12.918;2023-08-31T02:01:47;1.50;;;1.40;;
7013;SDS011;3547;50.774;12.918;2023-08-31T02:04:25;1.88;;;1.77;;
7013;SDS011;3547;50.774;12.918;2023-08-31T02:06:55;3.75;;;1.63;;
7013;SDS011;3547;50.774;12.918;2023-08-31T02:09:21;1.95;;;1.80;;
7013;SDS011;3547;50.774;12.918;2023-08-31T02:11:47;1.85;;;1.65;;
7013;SDS011;3547;50.774;12.918;2023-08-31T02:14:14;3.10;;;2.25;;
7013;SDS011;3547;50.774;12.918;2023-08-31T02:16:40;1.60;;;1.50;;
7013;SDS011;3547;50.774;12.918;2023-08-31T02:19:06;1.60;;;1.40;;
7013;SDS011;3547;50.774;12.918;2023-08-31T02:21:32;2.38;;;1.45;;
7013;SDS011;3547;50.774;12.918;2023-08-31T02:23:59;1.83;;;1.70;;
7013;SDS011;3547;50.774;12.918;2023-08-31T02:26:28;1.88;;;1.70;;
7013;SDS011;3547;50.774;12.918;2023-08-31T02:28:54;1.60;;;1.50;;
7013;SDS011;3547;50.774;12.918;2023-08-31T02:31:21;1.58;;;1.45;;
7013;SDS011;3547;50.774;12.918;2023-08-31T02:33:47;1.70;;;1.60;;
7013;SDS011;3547;50.774;12.918;2023-08-31T02:36:14;2.40;;;1.83;;
7013;SDS011;3547;50.774;12.918;2023-08-31T02:38:40;1.63;;;1.52;;
7013;SDS011;3547;50.774;12.918;2023-08-31T02:41:06;1.50;;;1.40;;
7013;SDS011;3547;50.774;12.918;2023-08-31T02:43:32;2.92;;;1.38;;
7013;SDS011;3547;50.774;12.918;2023-08-31T02:46:00;3.92;;;1.70;;
7013;SDS011;3547;50.774;12.918;2023-08-31T02:51:49;2.05;;;1.50;;
7013;SDS011;3547;50.774;12.918;2023-08-31T02:54:15;1.60;;;1.50;;
7013;SDS011;3547;50.774;12.918;2023-08-31T02:56:42;1.55;;;1.25;;
7013;SDS011;3547;50.774;12.918;2023-08-31T03:02:30;1.73;;;1.60;;
7013;SDS011;3547;50.774;12.918;2023-08-31T03:04:57;2.37;;;1.60;;
7013;SDS011;3547;50.774;12.918;2023-08-31T03:07:23;1.77;;;1.67;;
7013;SDS011;3547;50.774;12.918;2023-08-31T03:09:49;3.07;;;1.40;;
7013;SDS011;3547;50.774;12.918;2023-08-31T03:12:16;3.53;;;1.63;;
7013;SDS011;3547;50.774;12.918;2023-08-31T03:14:42;1.53;;;1.40;;
7013;SDS011;3547;50.774;12.918;2023-08-31T03:17:09;2.05;;;1.80;;
7013;SDS011;3547;50.774;12.918;2023-08-31T03:19:35;1.93;;;1.73;;
7013;SDS011;3547;50.774;12.918;2023-08-31T03:22:04;1.97;;;1.80;;
7013;SDS011;3547;50.774;12.918;2023-08-31T03:24:38;2.13;;;1.67;;
7013;SDS011;3547;50.774;12.918;2023-08-31T03:27:09;1.47;;;1.37;;
7013;SDS011;3547;50.774;12.918;2023-08-31T03:29:36;1.87;;;1.43;;
7013;SDS011;3547;50.774;12.918;2023-08-31T03:32:05;1.80;;;1.50;;
7013;SDS011;3547;50.774;12.918;2023-08-31T03:34:31;1.53;;;1.43;;
7013;SDS011;3547;50.774;12.918;2023-08-31T03:36:58;2.40;;;1.60;;
7013;SDS011;3547;50.774;12.918;2023-08-31T03:39:25;1.93;;;1.40;;
7013;SDS011;3547;50.774;12.918;2023-08-31T03:45:40;1.60;;;1.50;;
7013;SDS011;3547;50.774;12.918;2023-08-31T03:52:19;1.30;;;1.20;;
7013;SDS011;3547;50.774;12.918;2023-08-31T03:55:09;3.73;;;1.57;;
7013;SDS011;3547;50.774;12.918;2023-08-31T04:05:26;1.60;;;1.37;;
7013;SDS011;3547;50.774;12.918;2023-08-31T04:07:53;4.03;;;1.43;;
7013;SDS011;3547;50.774;12.918;2023-08-31T04:10:22;1.43;;;1.23;;
7013;SDS011;3547;50.774;12.918;2023-08-31T04:12:52;4.50;;;1.90;;
7013;SDS011;3547;50.774;12.918;2023-08-31T05:14:48;2.03;;;1.37;;
7013;SDS011;3547;50.774;12.918;2023-08-31T05:23:26;1.30;;;1.20;;
7013;SDS011;3547;50.774;12.918;2023-08-31T05:26:39;1.03;;;1.00;;
7013;SDS011;3547;50.774;12.918;2023-08-31T05:29:06;1.55;;;1.23;;
7013;SDS011;3547;50.774;12.918;2023-08-31T05:31:33;1.35;;;1.25;;
7013;SDS011;3547;50.774;12.918;2023-08-31T05:34:04;2.63;;;1.47;;
7013;SDS011;3547;50.774;12.918;2023-08-31T05:36:35;1.13;;;1.02;;
7013;SDS011;3547;50.774;12.918;2023-08-31T05:39:02;1.20;;;1.10;;
7013;SDS011;3547;50.774;12.918;2023-08-31T05:41:32;1.30;;;1.20;;
7013;SDS011;3547;50.774;12.918;2023-08-31T05:44:02;1.20;;;1.10;;
7013;SDS011;3547;50.774;12.918;2023-08-31T05:46:29;1.50;;;1.40;;
7013;SDS011;3547;50.774;12.918;2023-08-31T05:52:18;3.17;;;1.10;;
7013;SDS011;3547;50.774;12.918;2023-08-31T05:54:44;1.90;;;1.02;;
7013;SDS011;3547;50.774;12.918;2023-08-31T05:57:13;1.75;;;1.42;;
7013;SDS011;3547;50.774;12.918;2023-08-31T06:00:00;1.27;;;1.15;;
7013;SDS011;3547;50.774;12.918;2023-08-31T06:02:26;1.90;;;1.50;;
7013;SDS011;3547;50.774;12.918;2023-08-31T06:04:59;1.65;;;1.45;;
7013;SDS011;3547;50.774;12.918;2023-08-31T06:07:34;1.30;;;1.20;;
7013;SDS011;3547;50.774;12.918;2023-08-31T06:10:01;1.63;;;1.52;;
7013;SDS011;3547;50.774;12.918;2023-08-31T06:12:29;1.73;;;1.33;;
7013;SDS011;3547;50.774;12.918;2023-08-31T06:14:55;2.63;;;1.20;;
7013;SDS011;3547;50.774;12.918;2023-08-31T06:17:25;2.05;;;1.58;;
7013;SDS011;3547;50.774;12.918;2023-08-31T06:19:52;1.40;;;1.30;;
7013;SDS011;3547;50.774;12.918;2023-08-31T06:22:18;4.97;;;1.45;;
7013;SDS011;3547;50.774;12.918;2023-08-31T06:28:07;1.92;;;1.33;;
7013;SDS011;3547;50.774;12.918;2023-08-31T06:30:38;1.58;;;1.30;;
7013;SDS011;3547;50.774;12.918;2023-08-31T06:33:15;3.40;;;1.33;;
7013;SDS011;3547;50.774;12.918;2023-08-31T06:35:48;1.27;;;1.17;;
7013;SDS011;3547;50.774;12.918;2023-08-31T06:38:17;2.92;;;1.48;;
7013;SDS011;3547;50.774;12.918;2023-08-31T06:40:44;2.55;;;1.48;;
7013;SDS011;3547;50.774;12.918;2023-08-31T06:43:11;1.90;;;1.60;;
7013;SDS011;3547;50.774;12.918;2023-08-31T06:45:38;8.35;;;1.33;;
7013;SDS011;3547;50.774;12.918;2023-08-31T06:48:05;1.33;;;1.23;;
7013;SDS011;3547;50.774;12.918;2023-08-31T06:50:34;1.40;;;1.30;;
7013;SDS011;3547;50.774;12.918;2023-08-31T06:53:01;1.77;;;1.30;;
7013;SDS011;3547;50.774;12.918;2023-08-31T06:55:28;1.77;;;1.50;;
7013;SDS011;3547;50.774;12.918;2023-08-31T06:57:57;1.60;;;1.50;;
7013;SDS011;3547;50.774;12.918;2023-08-31T07:00:26;2.90;;;1.67;;
7013;SDS011;3547;50.774;12.918;2023-08-31T07:02:52;2.00;;;1.80;;
7013;SDS011;3547;50.774;12.918;2023-08-31T07:05:25;1.50;;;1.40;;
7013;SDS011;3547;50.774;12.918;2023-08-31T07:07:55;2.90;;;1.83;;
7013;SDS011;3547;50.774;12.918;2023-08-31T07:10:23;2.60;;;1.90;;
7013;SDS011;3547;50.774;12.918;2023-08-31T07:12:50;1.65;;;1.55;;
7013;SDS011;3547;50.774;12.918;2023-08-31T07:15:19;2.15;;;1.58;;
7013;SDS011;3547;50.774;12.918;2023-08-31T07:17:48;2.72;;;1.90;;
7013;SDS011;3547;50.774;12.918;2023-08-31T07:20:15;2.10;;;1.60;;
7013;SDS011;3547;50.774;12.918;2023-08-31T07:22:41;2.22;;;1.80;;
7013;SDS011;3547;50.774;12.918;2023-08-31T07:25:08;2.38;;;1.80;;
7013;SDS011;3547;50.774;12.918;2023-08-31T07:27:34;1.70;;;1.60;;
7013;SDS011;3547;50.774;12.918;2023-08-31T07:30:02;1.50;;;1.40;;
7013;SDS011;3547;50.774;12.918;2023-08-31T07:32:29;2.22;;;1.50;;
7013;SDS011;3547;50.774;12.918;2023-08-31T07:34:56;2.10;;;1.90;;
7013;SDS011;3547;50.774;12.918;2023-08-31T07:37:25;2.20;;;1.63;;
7013;SDS011;3547;50.774;12.918;2023-08-31T07:39:52;2.28;;;1.77;;
7013;SDS011;3547;50.774;12.918;2023-08-31T07:45:43;2.55;;;1.75;;
7013;SDS011;3547;50.774;12.918;2023-08-31T07:51:31;2.88;;;1.98;;
7013;SDS011;3547;50.774;12.918;2023-08-31T07:53:59;3.25;;;1.98;;
7013;SDS011;3547;50.774;12.918;2023-08-31T07:56:25;2.50;;;2.30;;
7013;SDS011;3547;50.774;12.918;2023-08-31T07:58:52;2.72;;;1.77;;
7013;SDS011;3547;50.774;12.918;2023-08-31T08:01:18;4.50;;;1.70;;
7013;SDS011;3547;50.774;12.918;2023-08-31T08:03:44;1.85;;;1.67;;
7013;SDS011;3547;50.774;12.918;2023-08-31T08:06:10;3.75;;;1.80;;
7013;SDS011;3547;50.774;12.918;2023-08-31T08:08:37;2.25;;;1.70;;
7013;SDS011;3547;50.774;12.918;2023-08-31T08:11:10;3.35;;;1.90;;
7013;SDS011;3547;50.774;12.918;2023-08-31T08:13:39;2.40;;;2.20;;
7013;SDS011;3547;50.774;12.918;2023-08-31T08:16:06;1.45;;;1.35;;
7013;SDS011;3547;50.774;12.918;2023-08-31T08:18:35;3.17;;;2.17;;
7013;SDS011;3547;50.774;12.918;2023-08-31T08:21:01;1.90;;;1.70;;
7013;SDS011;3547;50.774;12.918;2023-08-31T08:23:29;1.58;;;1.48;;
7013;SDS011;3547;50.774;12.918;2023-08-31T08:25:55;1.77;;;1.45;;
7013;SDS011;3547;50.774;12.918;2023-08-31T08:28:22;1.50;;;1.40;;
7013;SDS011;3547;50.774;12.918;2023-08-31T08:30:48;1.65;;;1.48;;
7013;SDS011;3547;50.774;12.918;2023-08-31T08:33:15;2.13;;;1.50;;
7013;SDS011;3547;50.774;12.918;2023-08-31T08:35:41;5.15;;;1.95;;
7013;SDS011;3547;50.774;12.918;2023-08-31T08:38:07;1.80;;;1.20;;
7013;SDS011;3547;50.774;12.918;2023-08-31T08:40:34;2.55;;;1.30;;
7013;SDS011;3547;50.774;12.918;2023-08-31T08:43:01;3.78;;;1.45;;
7013;SDS011;3547;50.774;12.918;2023-08-31T08:45:30;1.40;;;1.30;;
7013;SDS011;3547;50.774;12.918;2023-08-31T08:48:07;1.05;;;1.02;;
7013;SDS011;3547;50.774;12.918;2023-08-31T08:50:35;1.77;;;1.33;;
7013;SDS011;3547;50.774;12.918;2023-08-31T08:53:02;1.75;;;1.65;;
7013;SDS011;3547;50.774;12.918;2023-08-31T08:55:29;2.25;;;1.45;;
7013;SDS011;3547;50.774;12.918;2023-08-31T08:57:57;1.55;;;1.42;;
7013;SDS011;3547;50.774;12.918;2023-08-31T09:00:29;1.40;;;1.30;;
7013;SDS011;3547;50.774;12.918;2023-08-31T09:02:55;2.08;;;1.38;;
7013;SDS011;3547;50.774;12.918;2023-08-31T09:05:23;3.20;;;1.20;;
7013;SDS011;3547;50.774;12.918;2023-08-31T09:08:09;1.80;;;1.20;;
7013;SDS011;3547;50.774;12.918;2023-08-31T09:10:41;3.40;;;1.50;;
7013;SDS011;3547;50.774;12.918;2023-08-31T09:13:09;1.60;;;1.50;;
7013;SDS011;3547;50.774;12.918;2023-08-31T09:15:43;4.78;;;1.55;;
7013;SDS011;3547;50.774;12.918;2023-08-31T09:18:14;1.85;;;1.73;;
7013;SDS011;3547;50.774;12.918;2023-08-31T09:20:54;1.42;;;1.30;;
7013;SDS011;3547;50.774;12.918;2023-08-31T09:23:24;2.92;;;1.65;;
7013;SDS011;3547;50.774;12.918;2023-08-31T09:25:54;1.60;;;1.50;;
7013;SDS011;3547;50.774;12.918;2023-08-31T09:28:22;1.80;;;1.20;;
7013;SDS011;3547;50.774;12.918;2023-08-31T09:30:52;2.15;;;1.10;;
7013;SDS011;3547;50.774;12.918;2023-08-31T09:33:27;1.52;;;1.30;;
7013;SDS011;3547;50.774;12.918;2023-08-31T09:35:56;1.55;;;1.20;;
7013;SDS011;3547;50.774;12.918;2023-08-31T09:38:25;2.65;;;1.52;;
7013;SDS011;3547;50.774;12.918;2023-08-31T09:40:51;1.60;;;1.30;;
7013;SDS011;3547;50.774;12.918;2023-08-31T09:43:22;1.48;;;1.38;;
7013;SDS011;3547;50.774;12.918;2023-08-31T09:45:49;2.25;;;1.08;;
7013;SDS011;3547;50.774;12.918;2023-08-31T09:48:16;1.73;;;1.35;;
7013;SDS011;3547;50.774;12.918;2023-08-31T09:50:43;2.08;;;1.70;;
7013;SDS011;3547;50.774;12.918;2023-08-31T09:53:11;3.00;;;1.33;;
7013;SDS011;3547;50.774;12.918;2023-08-31T09:55:39;1.95;;;1.30;;
7013;SDS011;3547;50.774;12.918;2023-08-31T09:58:06;1.70;;;1.50;;
7013;SDS011;3547;50.774;12.918;2023-08-31T10:00:35;2.20;;;1.30;;
7013;SDS011;3547;50.774;12.918;2023-08-31T10:03:03;1.52;;;1.17;;
7013;SDS011;3547;50.774;12.918;2023-08-31T10:05:31;1.30;;;1.20;;
7013;SDS011;3547;50.774;12.918;2023-08-31T10:07:58;2.53;;;1.40;;
7013;SDS011;3547;50.774;12.918;2023-08-31T10:10:25;1.48;;;1.38;;
7013;SDS011;3547;50.774;12.918;2023-08-31T10:12:53;3.47;;;1.40;;
7013;SDS011;3547;50.774;12.918;2023-08-31T10:15:20;1.77;;;1.25;;
7013;SDS011;3547;50.774;12.918;2023-08-31T10:17:46;1.52;;;1.42;;
7013;SDS011;3547;50.774;12.918;2023-08-31T10:20:13;1.48;;;1.30;;
7013;SDS011;3547;50.774;12.918;2023-08-31T10:22:41;2.33;;;1.45;;
7013;SDS011;3547;50.774;12.918;2023-08-31T10:25:08;2.10;;;1.38;;
7013;SDS011;3547;50.774;12.918;2023-08-31T10:37:19;1.88;;;1.52;;
7013;SDS011;3547;50.774;12.918;2023-08-31T10:39:47;1.60;;;1.50;;
7013;SDS011;3547;50.774;12.918;2023-08-31T10:42:13;1.52;;;1.42;;
7013;SDS011;3547;50.774;12.918;2023-08-31T10:44:41;2.05;;;1.60;;
7013;SDS011;3547;50.774;12.918;2023-08-31T10:47:10;1.75;;;1.20;;
7013;SDS011;3547;50.774;12.918;2023-08-31T10:49:37;1.20;;;1.13;;
7013;SDS011;3547;50.774;12.918;2023-08-31T10:52:17;1.40;;;1.20;;
7013;SDS011;3547;50.774;12.918;2023-08-31T10:54:45;1.40;;;1.08;;
7013;SDS011;3547;50.774;12.918;2023-08-31T10:57:12;2.38;;;1.13;;
7013;SDS011;3547;50.774;12.918;2023-08-31T11:02:07;1.10;;;1.10;;
7013;SDS011;3547;50.774;12.918;2023-08-31T11:07:34;1.73;;;1.35;;
7013;SDS011;3547;50.774;12.918;2023-08-31T11:12:37;5.85;;;1.58;;
7013;SDS011;3547;50.774;12.918;2023-08-31T11:15:04;1.20;;;1.10;;
7013;SDS011;3547;50.774;12.918;2023-08-31T11:17:31;2.83;;;1.40;;
7013;SDS011;3547;50.774;12.918;2023-08-31T11:19:58;1.38;;;1.27;;
7013;SDS011;3547;50.774;12.918;2023-08-31T11:22:26;1.20;;;1.10;;
7013;SDS011;3547;50.774;12.918;2023-08-31T11:24:53;1.23;;;1.13;;
7013;SDS011;3547;50.774;12.918;2023-08-31T11:27:19;4.43;;;1.27;;
7013;SDS011;3547;50.774;12.918;2023-08-31T11:29:46;1.50;;;1.30;;
7013;SDS011;3547;50.774;12.918;2023-08-31T11:32:13;1.63;;;1.52;;
7013;SDS011;3547;50.774;12.918;2023-08-31T11:34:40;2.20;;;0.98;;
7013;SDS011;3547;50.774;12.918;2023-08-31T11:37:08;1.52;;;1.40;;
7013;SDS011;3547;50.774;12.918;2023-08-31T11:39:35;1.52;;;1.23;;
7013;SDS011;3547;50.774;12.918;2023-08-31T11:42:03;2.88;;;1.50;;
7013;SDS011;3547;50.774;12.918;2023-08-31T11:44:30;1.63;;;1.30;;
7013;SDS011;3547;50.774;12.918;2023-08-31T11:46:56;1.23;;;0.95;;
7013;SDS011;3547;50.774;12.918;2023-08-31T11:49:23;1.33;;;1.23;;
7013;SDS011;3547;50.774;12.918;2023-08-31T11:51:50;4.15;;;1.48;;
7013;SDS011;3547;50.774;12.918;2023-08-31T11:54:17;1.48;;;0.90;;
7013;SDS011;3547;50.774;12.918;2023-08-31T11:56:44;1.33;;;1.05;;
7013;SDS011;3547;50.774;12.918;2023-08-31T11:59:15;1.10;;;0.80;;
7013;SDS011;3547;50.774;12.918;2023-08-31T12:01:42;1.17;;;0.77;;
7013;SDS011;3547;50.774;12.918;2023-08-31T12:04:13;1.17;;;1.00;;
7013;SDS011;3547;50.774;12.918;2023-08-31T12:06:40;1.70;;;1.20;;
7013;SDS011;3547;50.774;12.918;2023-08-31T12:09:07;1.35;;;1.20;;
7013;SDS011;3547;50.774;12.918;2023-08-31T12:11:34;0.73;;;0.63;;
7013;SDS011;3547;50.774;12.918;2023-08-31T12:14:01;1.27;;;1.00;;
7013;SDS011;3547;50.774;12.918;2023-08-31T12:16:34;4.25;;;1.27;;
7013;SDS011;3547;50.774;12.918;2023-08-31T12:19:04;0.60;;;0.60;;
7013;SDS011;3547;50.774;12.918;2023-08-31T12:21:31;3.53;;;1.10;;
7013;SDS011;3547;50.774;12.918;2023-08-31T12:23:59;1.10;;;1.00;;
7013;SDS011;3547;50.774;12.918;2023-08-31T12:26:26;1.35;;;1.25;;
7013;SDS011;3547;50.774;12.918;2023-08-31T12:28:52;2.08;;;1.88;;
7013;SDS011;3547;50.774;12.918;2023-08-31T12:31:18;2.08;;;1.60;;
7013;SDS011;3547;50.774;12.918;2023-08-31T12:33:44;1.45;;;1.30;;
7013;SDS011;3547;50.774;12.918;2023-08-31T12:36:11;1.42;;;1.33;;
7013;SDS011;3547;50.774;12.918;2023-08-31T12:38:37;1.95;;;1.40;;
7013;SDS011;3547;50.774;12.918;2023-08-31T12:41:03;1.60;;;1.50;;
7013;SDS011;3547;50.774;12.918;2023-08-31T12:43:29;4.18;;;2.00;;
7013;SDS011;3547;50.774;12.918;2023-08-31T12:45:57;2.35;;;1.15;;
7013;SDS011;3547;50.774;12.918;2023-08-31T12:48:23;3.75;;;1.60;;
7013;SDS011;3547;50.774;12.918;2023-08-31T12:50:49;1.80;;;1.40;;
7013;SDS011;3547;50.774;12.918;2023-08-31T12:53:16;2.30;;;1.30;;
7013;SDS011;3547;50.774;12.918;2023-08-31T12:55:42;2.03;;;1.60;;
7013;SDS011;3547;50.774;12.918;2023-08-31T12:58:08;2.72;;;1.67;;
7013;SDS011;3547;50.774;12.918;2023-08-31T13:00:34;2.20;;;1.90;;
7013;SDS011;3547;50.774;12.918;2023-08-31T13:03:01;2.42;;;1.58;;
7013;SDS011;3547;50.774;12.918;2023-08-31T13:05:28;4.15;;;1.60;;
7013;SDS011;3547;50.774;12.918;2023-08-31T13:07:55;4.70;;;1.42;;
7013;SDS011;3547;50.774;12.918;2023-08-31T13:10:21;1.27;;;1.17;;
7013;SDS011;3547;50.774;12.918;2023-08-31T13:12:47;1.20;;;1.10;;
7013;SDS011;3547;50.774;12.918;2023-08-31T13:15:13;1.30;;;1.15;;
7013;SDS011;3547;50.774;12.918;2023-08-31T13:17:40;2.47;;;1.50;;
7013;SDS011;3547;50.774;12.918;2023-08-31T13:20:06;1.85;;;1.40;;
7013;SDS011;3547;50.774;12.918;2023-08-31T13:22:34;3.22;;;1.73;;
7013;SDS011;3547;50.774;12.918;2023-08-31T13:25:00;1.73;;;1.30;;
7013;SDS011;3547;50.774;12.918;2023-08-31T13:27:26;2.53;;;1.48;;
7013;SDS011;3547;50.774;12.918;2023-08-31T13:29:53;5.57;;;1.30;;
7013;SDS011;3547;50.774;12.918;2023-08-31T13:32:19;4.10;;;1.20;;
7013;SDS011;3547;50.774;12.918;2023-08-31T13:34:45;1.35;;;1.20;;
7013;SDS011;3547;50.774;12.918;2023-08-31T13:37:11;1.30;;;1.20;;
7013;SDS011;3547;50.774;12.918;2023-08-31T13:39:37;1.80;;;1.27;;
7013;SDS011;3547;50.774;12.918;2023-08-31T13:42:05;0.70;;;0.70;;
7013;SDS011;3547;50.774;12.918;2023-08-31T13:44:32;1.10;;;0.88;;
7013;SDS011;3547;50.774;12.918;2023-08-31T13:46:59;0.80;;;0.73;;
7013;SDS011;3547;50.774;12.918;2023-08-31T13:49:29;0.73;;;0.73;;
7013;SDS011;3547;50.774;12.918;2023-08-31T13:51:56;0.80;;;0.80;;
7013;SDS011;3547;50.774;12.918;2023-08-31T13:54:22;2.20;;;0.95;;
7013;SDS011;3547;50.774;12.918;2023-08-31T13:56:51;1.23;;;1.13;;
7013;SDS011;3547;50.774;12.918;2023-08-31T13:59:18;0.70;;;0.70;;
7013;SDS011;3547;50.774;12.918;2023-08-31T14:01:48;0.70;;;0.70;;
7013;SDS011;3547;50.774;12.918;2023-08-31T14:04:20;0.55;;;0.55;;
7013;SDS011;3547;50.774;12.918;2023-08-31T14:06:49;1.42;;;1.00;;
7013;SDS011;3547;50.774;12.918;2023-08-31T14:09:16;0.82;;;0.80;;
7013;SDS011;3547;50.774;12.918;2023-08-31T14:11:44;1.50;;;0.95;;
7013;SDS011;3547;50.774;12.918;2023-08-31T14:14:10;0.52;;;0.52;;
7013;SDS011;3547;50.774;12.918;2023-08-31T14:16:37;1.17;;;0.70;;
7013;SDS011;3547;50.774;12.918;2023-08-31T14:19:03;3.38;;;0.77;;
7013;SDS011;3547;50.774;12.918;2023-08-31T14:21:31;0.90;;;0.90;;
7013;SDS011;3547;50.774;12.918;2023-08-31T14:23:57;1.13;;;0.93;;
7013;SDS011;3547;50.774;12.918;2023-08-31T14:26:24;2.92;;;1.25;;
7013;SDS011;3547;50.774;12.918;2023-08-31T14:28:51;1.48;;;1.08;;
7013;SDS011;3547;50.774;12.918;2023-08-31T14:31:17;0.73;;;0.73;;
7013;SDS011;3547;50.774;12.918;2023-08-31T14:33:44;1.15;;;0.98;;
7013;SDS011;3547;50.774;12.918;2023-08-31T14:36:12;1.48;;;0.75;;
7013;SDS011;3547;50.774;12.918;2023-08-31T14:38:40;1.40;;;1.05;;
7013;SDS011;3547;50.774;12.918;2023-08-31T14:41:06;2.42;;;1.30;;
7013;SDS011;3547;50.774;12.918;2023-08-31T14:43:33;1.92;;;0.98;;
7013;SDS011;3547;50.774;12.918;2023-08-31T14:45:59;1.00;;;0.90;;
7013;SDS011;3547;50.774;12.918;2023-08-31T14:48:26;1.30;;;1.20;;
7013;SDS011;3547;50.774;12.918;2023-08-31T14:50:54;3.20;;;1.00;;
7013;SDS011;3547;50.774;12.918;2023-08-31T14:53:20;2.13;;;1.10;;
7013;SDS011;3547;50.774;12.918;2023-08-31T14:55:49;1.52;;;1.13;;
7013;SDS011;3547;50.774;12.918;2023-08-31T14:58:15;1.30;;;0.70;;
7013;SDS011;3547;50.774;12.918;2023-08-31T15:00:42;0.55;;;0.55;;
7013;SDS011;3547;50.774;12.918;2023-08-31T15:03:10;1.27;;;1.17;;
7013;SDS011;3547;50.774;12.918;2023-08-31T15:05:36;1.67;;;1.15;;
7013;SDS011;3547;50.774;12.918;2023-08-31T15:08:07;1.95;;;1.10;;
7013;SDS011;3547;50.774;12.918;2023-08-31T15:10:37;0.93;;;0.68;;
7013;SDS011;3547;50.774;12.918;2023-08-31T15:13:04;0.98;;;0.80;;
7013;SDS011;3547;50.774;12.918;2023-08-31T15:15:34;1.20;;;1.10;;
7013;SDS011;3547;50.774;12.918;2023-08-31T15:18:00;1.35;;;0.80;;
7013;SDS011;3547;50.774;12.918;2023-08-31T15:20:27;2.83;;;0.90;;
7013;SDS011;3547;50.774;12.918;2023-08-31T15:23:03;1.27;;;1.00;;
7013;SDS011;3547;50.774;12.918;2023-08-31T15:25:29;1.17;;;0.60;;
7013;SDS011;3547;50.774;12.918;2023-08-31T15:27:55;0.98;;;0.80;;
7013;SDS011;3547;50.774;12.918;2023-08-31T15:30:22;1.60;;;0.50;;
7013;SDS011;3547;50.774;12.918;2023-08-31T15:32:48;1.17;;;0.85;;
7013;SDS011;3547;50.774;12.918;2023-08-31T15:35:14;0.82;;;0.82;;
7013;SDS011;3547;50.774;12.918;2023-08-31T15:37:41;1.42;;;0.68;;
7013;SDS011;3547;50.774;12.918;2023-08-31T15:40:08;1.65;;;0.90;;
7013;SDS011;3547;50.774;12.918;2023-08-31T15:42:34;1.42;;;0.88;;
7013;SDS011;3547;50.774;12.918;2023-08-31T15:45:01;0.63;;;0.55;;
7013;SDS011;3547;50.774;12.918;2023-08-31T15:47:27;2.60;;;0.90;;
7013;SDS011;3547;50.774;12.918;2023-08-31T15:49:56;1.50;;;0.88;;
7013;SDS011;3547;50.774;12.918;2023-08-31T15:52:22;0.63;;;0.63;;
7013;SDS011;3547;50.774;12.918;2023-08-31T15:54:48;1.48;;;0.93;;
7013;SDS011;3547;50.774;12.918;2023-08-31T15:57:14;2.10;;;0.57;;
7013;SDS011;3547;50.774;12.918;2023-08-31T15:59:41;0.82;;;0.75;;
7013;SDS011;3547;50.774;12.918;2023-08-31T16:02:07;0.95;;;0.80;;
7013;SDS011;3547;50.774;12.918;2023-08-31T16:04:34;0.90;;;0.70;;
7013;SDS011;3547;50.774;12.918;2023-08-31T16:07:00;1.38;;;0.80;;
7013;SDS011;3547;50.774;12.918;2023-08-31T16:09:30;0.55;;;0.55;;
7013;SDS011;3547;50.774;12.918;2023-08-31T16:12:01;0.82;;;0.80;;
7013;SDS011;3547;50.774;12.918;2023-08-31T16:14:48;1.55;;;0.93;;
7013;SDS011;3547;50.774;12.918;2023-08-31T16:17:17;1.40;;;1.00;;
7013;SDS011;3547;50.774;12.918;2023-08-31T16:19:43;0.70;;;0.70;;
7013;SDS011;3547;50.774;12.918;2023-08-31T16:22:10;0.88;;;0.60;;
7013;SDS011;3547;50.774;12.918;2023-08-31T16:24:38;0.65;;;0.65;;
7013;SDS011;3547;50.774;12.918;2023-08-31T16:27:04;0.60;;;0.60;;
7013;SDS011;3547;50.774;12.918;2023-08-31T16:29:30;0.43;;;0.40;;
7013;SDS011;3547;50.774;12.918;2023-08-31T16:31:56;1.17;;;0.60;;
7013;SDS011;3547;50.774;12.918;2023-08-31T16:34:23;0.80;;;0.80;;
7013;SDS011;3547;50.774;12.918;2023-08-31T16:36:49;1.98;;;1.13;;
7013;SDS011;3547;50.774;12.918;2023-08-31T16:39:15;1.25;;;0.70;;
7013;SDS011;3547;50.774;12.918;2023-08-31T16:41:43;1.10;;;0.75;;
7013;SDS011;3547;50.774;12.918;2023-08-31T16:44:09;0.98;;;0.88;;
7013;SDS011;3547;50.774;12.918;2023-08-31T16:46:36;1.75;;;1.00;;
7013;SDS011;3547;50.774;12.918;2023-08-31T16:49:02;0.52;;;0.50;;
7013;SDS011;3547;50.774;12.918;2023-08-31T16:51:32;1.75;;;1.02;;
7013;SDS011;3547;50.774;12.918;2023-08-31T16:53:58;1.80;;;0.90;;
7013;SDS011;3547;50.774;12.918;2023-08-31T16:56:24;1.67;;;1.00;;
7013;SDS011;3547;50.774;12.918;2023-08-31T16:58:51;0.82;;;0.82;;
7013;SDS011;3547;50.774;12.918;2023-08-31T17:01:21;2.17;;;1.10;;
7013;SDS011;3547;50.774;12.918;2023-08-31T17:03:53;0.68;;;0.68;;
7013;SDS011;3547;50.774;12.918;2023-08-31T17:09:42;2.72;;;1.00;;
7013;SDS011;3547;50.774;12.918;2023-08-31T17:12:08;2.72;;;1.20;;
7013;SDS011;3547;50.774;12.918;2023-08-31T17:14:35;1.42;;;1.00;;
7013;SDS011;3547;50.774;12.918;2023-08-31T17:17:01;1.20;;;1.10;;
7013;SDS011;3547;50.774;12.918;2023-08-31T17:19:28;1.20;;;1.00;;
7013;SDS011;3547;50.774;12.918;2023-08-31T17:21:54;1.20;;;1.10;;
7013;SDS011;3547;50.774;12.918;2023-08-31T17:24:21;1.15;;;1.05;;
7013;SDS011;3547;50.774;12.918;2023-08-31T17:26:49;0.90;;;0.90;;
7013;SDS011;3547;50.774;12.918;2023-08-31T17:29:15;0.85;;;0.82;;
7013;SDS011;3547;50.774;12.918;2023-08-31T17:31:42;1.02;;;1.02;;
7013;SDS011;3547;50.774;12.918;2023-08-31T17:34:08;0.82;;;0.82;;
7013;SDS011;3547;50.774;12.918;2023-08-31T17:36:34;1.65;;;1.13;;
7013;SDS011;3547;50.774;12.918;2023-08-31T17:39:02;1.08;;;0.98;;